Racecast

Octavious Bowens

Hampton Roads Hurricanes (VA) · 12 · Compare head to head

Athlete rating
Best race 65.7 TF
Races 97
Seasons 3 2024 — 2026
Speed rating — all races

Track & Field

TF speed rating

2026 TF 65.7

Hampton Roads Hurricanes (VA) · Grade 12

Date Meet Event Result Place Rating Difficulty PR/SR Flags
2026-06-13 AAU Virginia District Qualifier - South 100mh 19.29 3rd · 1st on team -0.033 ★PR SR
2026-06-13 AAU Virginia District Qualifier - South 100m 14.92 11th · 5th on team -0.033
2026-06-13 AAU Virginia District Qualifier - South 200m 30.88 18th · 4th on team -0.033 ★PR SR
2026-05-30 Va Beach Flames Invite 100m 14.28 31st · 3rd on team -0.023
2026-05-30 Va Beach Flames Invite 200m 31.64 23rd · 3rd on team -0.023 SR
2026-05-30 Va Beach Flames Invite 100mh 20.13 6th · 2nd on team -0.023
2026-05-24 HR Hurricanes CAT 5 Invite 100mh 19.75 5th · 2nd on team -0.035 PR SR
2026-05-24 HR Hurricanes CAT 5 Invite 200m 31.76 23rd · 5th on team -0.035 SR
2026-05-24 HR Hurricanes CAT 5 Invite 100m 14.33 24th · 8th on team -0.035
2026-05-16 2026 Technique Relays 400m 1:27.84 27th · 2nd on team -0.035 SR
2026-05-16 2026 Technique Relays 100m 14.18 25th · 5th on team -0.035 ★PR SR
2026-05-03 Queen Harrison Track Classic - -Youth Section 100mh 20.29 2nd · 2nd on team -0.033 PR SR
2026-05-03 Queen Harrison Track Classic - -Youth Section 100m 14.76 11th · 6th on team -0.033 SR
2026-03-22 Adidas Indoor National 60m 9.61 89th · 5th on team -0.036
2026-03-22 Adidas Indoor National 200m 32.78 96th · 4th on team -0.036
2026-03-22 Adidas Indoor National 60mh 12.15 32nd · 2nd on team -0.036
2026-03-06 AAU Indoor National Championship 200m 33.01 88th · 1st on team -0.036
2026-03-06 AAU Indoor National Championship 60mh 12.02 18th · 1st on team -0.036
2026-03-06 AAU Indoor National Championship 60m 9.81 68th · 1st on team -0.036
2026-02-22 3rd Annual HRH Winter Storm Classic 55mh 10.92 8th · 2nd on team -0.024
2026-02-22 3rd Annual HRH Winter Storm Classic 55m 8.73 29th · 5th on team -0.024
2026-01-31 BWSP Queens and Kings - Meet 3 55m 8.38 22nd · 4th on team -0.024 SR
2026-01-31 BWSP Queens and Kings - Meet 3 800m 3:51.98 6th · 1st on team 65.7 -0.024 ★PR ★R SR RSR
2026-01-31 BWSP Queens and Kings - Meet 3 55mh 10.43 3rd · 2nd on team -0.024 SR
2026-01-11 Lighting Track Classic 60mh 11.9 5th · 3rd on team -0.036 SR
2026-01-11 Lighting Track Classic 60m 9.5 44th · 5th on team -0.036 SR
2026-01-11 Lighting Track Classic 60mh 12.32 10th · 4th on team -0.036
2026-01-11 Lighting Track Classic 200m 31.85 37th · 1st on team -0.036 SR
2025-12-20 2025 Howard White Holiday Track Classic 200m 33.5 11th · 1st on team -0.024 SR
2025-12-20 2025 Howard White Holiday Track Classic 400m 1:28.71 18th · 3rd on team -0.024 SR
2025-12-20 2025 Howard White Holiday Track Classic 55m 8.45 15th · 4th on team -0.024 SR

2025 TF

Hampton Roads Hurricanes (VA) · Grade 11

Date Meet Event Result Place Rating Difficulty PR/SR Flags
2025-06-25 AAU Track & Field Region 5 Qualifier javelin 98-04 -0.034
2025-06-25 AAU Track & Field Region 5 Qualifier 80mh 14.42 5th · 1st on team -0.034 ★PR SR
2025-06-25 AAU Track & Field Region 5 Qualifier 100m 14.45 24th · 3rd on team -0.034
2025-06-14 AAU Virginia District Qualifier (Southern) javelin 87-08 -0.041
2025-06-14 AAU Virginia District Qualifier (Southern) 100m 14.66 12th · 2nd on team -0.041
2025-06-07 Darius Dixon Invite 100m 14.42 12th · 7th on team -0.032 PR SR
2025-06-07 Darius Dixon Invite 80mh 16.35 2nd · 1st on team -0.032
2025-06-07 Darius Dixon Invite 200m 34.35 11th · 4th on team -0.032
2025-06-07 Darius Dixon Invite 100m 14.71 14th · 8th on team -0.032
2025-05-31 Va Beach Flames Invite javelin DNS -0.023
2025-05-25 HR Hurricanes CAT 5 Invite javelin 74' 8" -0.035
2025-05-25 HR Hurricanes CAT 5 Invite 100m 14.52 24th · 9th on team -0.035 PR SR
2025-05-25 HR Hurricanes CAT 5 Invite 80mh 14.64 2nd · 1st on team -0.035 PR SR
2025-05-10 Legends Invitational hosted by Eastend Lightning javelin DNS -0.030
2025-05-04 Queen Harrison Youth Invite 100m 15.14 13th · 7th on team -0.033
2025-05-04 Queen Harrison Youth Invite 400m 1:23.21 23rd · 11th on team -0.033
2025-05-04 Queen Harrison Youth Invite 200m 34.33 21st · 11th on team -0.033
2025-04-27 TRACK 757 Classic 200m 33.38 24th · 11th on team -0.029
2025-04-27 TRACK 757 Classic 100m 14.81 30th · 13th on team -0.029 PR SR
2025-03-23 adidas Track Nationals 2025 55m 8.48 52nd · 5th on team -0.036
2025-03-23 adidas Track Nationals 2025 55mh 10.5 16th · 3rd on team -0.036
2025-03-23 adidas Track Nationals 2025 60m 9.26 58th · 5th on team -0.036
2025-03-23 adidas Track Nationals 2025 200m 31.51 61st · 4th on team -0.036
2025-03-23 adidas Track Nationals 2025 60mh 11.33 23rd · 3rd on team -0.036
2025-03-07 AAU Indoor National Championships 60m 9.53 63rd · 2nd on team -0.036
2025-03-07 AAU Indoor National Championships 200m 32.79 71st · 1st on team -0.036
2025-03-07 AAU Indoor National Championships 60mh 11.46 19th · 1st on team -0.036
2025-02-22 BWSP Queens and Kings Championships 55mh 9.62 1st · 1st on team -0.014 ★PR SR
2025-02-22 BWSP Queens and Kings Championships 200m 33.66 31st · 2nd on team -0.014
2025-02-22 BWSP Queens and Kings Championships 55m 8.33 24th · 4th on team -0.014
2025-02-16 HRH Winter Storm Classic 55mh 9.94 2nd · 1st on team -0.014
2025-02-16 HRH Winter Storm Classic 200m 34.02 22nd · 4th on team -0.014
2025-02-16 HRH Winter Storm Classic 55m 8.28 16th · 5th on team -0.014
2025-02-02 Track757 Invite 60m 9.5 30th · 7th on team -0.036
2025-02-02 Track757 Invite 60mh 10.42 2nd · 1st on team -0.036 ★PR SR
2025-02-02 Track757 Invite 200m 35.74 44th · 5th on team -0.036
2025-02-02 Track757 Invite 60mh 12.25 10th · 2nd on team -0.036
2025-02-01 BWSP Queens and Kings - Meet 3 55m 8.33 17th · 4th on team -0.014
2025-02-01 BWSP Queens and Kings - Meet 3 55mh 9.63 2nd · 1st on team -0.014 PR SR
2025-02-01 BWSP Queens and Kings - Meet 3 200m 32.66 18th · 3rd on team -0.014
2025-01-18 BWSP Queens and Kings - Meet 2 55mh 12.35 6th · 1st on team -0.014 PR SR
2025-01-18 BWSP Queens and Kings - Meet 2 200m 31.45 12th · 2nd on team -0.014
2025-01-18 BWSP Queens and Kings - Meet 2 55m 8.08 16th · 5th on team -0.014 ★PR SR
2025-01-04 BWSP Queens and Kings - Meet 1 200m 33.55 30th · 3rd on team -0.024
2025-01-04 BWSP Queens and Kings - Meet 1 55m 8.13 15th · 1st on team -0.024 PR SR
2025-01-04 BWSP Queens and Kings - Meet 1 400m 1:16.63 16th · 2nd on team -0.024 ★PR SR
2024-12-08 Coach Miami Presents the Virginia Beast Invitational 60m 9.2 22nd · 1st on team -0.036 ★PR SR
2024-12-08 Coach Miami Presents the Virginia Beast Invitational 400m 1:23.8 17th · 4th on team -0.036 PR SR
2024-12-08 Coach Miami Presents the Virginia Beast Invitational 200m 30.94 17th · 4th on team -0.036 PR SR
2024-08-03 AAU Junior Olympic Games javelin 19.82m -0.039

2024 TF

HR-Hurricanes (VA) · Grade 11

Date Meet Event Result Place Rating Difficulty PR/SR Flags
2024-06-29 AAU Region 05 National Qualifier javelin 91-08 -0.034
2024-06-08 AAU Virginia South District Qualifier javelin 60-08 -0.029
2024-06-08 AAU Virginia South District Qualifier 200m 31.43 17th · 4th on team -0.029 PR SR
2024-06-08 AAU Virginia South District Qualifier 100m 15.19 22nd · 4th on team -0.029
2024-06-01 VB Flames Invitational javelin 56-07 -0.023
2024-06-01 VB Flames Invitational 200m 32.62 22nd · 5th on team -0.023
2024-06-01 VB Flames Invitational 100m 15.12 29th · 7th on team -0.023
2024-05-26 HR Hurricanes CAT 5 Invite (CANCELED) (CANCELED) javelin 43' 10" -0.019
2024-05-26 HR Hurricanes CAT 5 Invite (CANCELED) (CANCELED) 200m 32.57 7th · 3rd on team -0.019 PR SR
2024-05-26 HR Hurricanes CAT 5 Invite (CANCELED) (CANCELED) 100m 15.08 26th · 9th on team -0.019
2024-05-11 2024 EE Lightning "Legends" Invite javelin 42-03 -0.043
2024-05-11 2024 EE Lightning "Legends" Invite 200m 32.69 32nd · 8th on team -0.043 PR SR
2024-05-11 2024 EE Lightning "Legends" Invite 400m 1:25.08 27th · 3rd on team -0.043 PR SR
2024-05-11 2024 EE Lightning "Legends" Invite 100m 14.99 21st · 7th on team -0.043 PR SR
2024-05-05 2024 Technique Relays 100m 15.28 19th · 7th on team -0.015 PR SR
2024-05-05 2024 Technique Relays 400m 1:28.7 17th · 5th on team -0.015 PR SR